sensor_id;sensor_type;location;lat;lon;timestamp;temperature;humidity
1225;DHT22;602;48.000;7.840;2022-12-07T00:00:51;6.70;99.90
1225;DHT22;602;48.000;7.840;2022-12-07T00:03:18;6.70;99.90
1225;DHT22;602;48.000;7.840;2022-12-07T00:05:44;6.80;99.90
1225;DHT22;602;48.000;7.840;2022-12-07T00:08:11;6.70;99.90
1225;DHT22;602;48.000;7.840;2022-12-07T00:10:38;6.80;99.90
1225;DHT22;602;48.000;7.840;2022-12-07T00:13:05;6.80;99.90
1225;DHT22;602;48.000;7.840;2022-12-07T00:15:33;6.70;99.90
1225;DHT22;602;48.000;7.840;2022-12-07T00:18:02;6.80;99.90
1225;DHT22;602;48.000;7.840;2022-12-07T00:20:29;6.80;99.90
1225;DHT22;602;48.000;7.840;2022-12-07T00:22:56;6.80;99.90
1225;DHT22;602;48.000;7.840;2022-12-07T00:25:23;6.90;99.90
1225;DHT22;602;48.000;7.840;2022-12-07T00:27:52;6.80;99.90
1225;DHT22;602;48.000;7.840;2022-12-07T00:30:21;6.70;99.90
1225;DHT22;602;48.000;7.840;2022-12-07T00:32:48;6.80;99.90
1225;DHT22;602;48.000;7.840;2022-12-07T00:35:16;6.60;99.90
1225;DHT22;602;48.000;7.840;2022-12-07T00:37:44;6.50;99.90
1225;DHT22;602;48.000;7.840;2022-12-07T00:40:11;6.60;99.90
1225;DHT22;602;48.000;7.840;2022-12-07T00:42:38;6.50;99.90
1225;DHT22;602;48.000;7.840;2022-12-07T00:45:06;6.60;99.90
1225;DHT22;602;48.000;7.840;2022-12-07T00:47:33;6.70;99.90
1225;DHT22;602;48.000;7.840;2022-12-07T00:50:00;6.70;99.90
1225;DHT22;602;48.000;7.840;2022-12-07T00:52:28;6.60;99.90
1225;DHT22;602;48.000;7.840;2022-12-07T00:54:55;6.50;99.90
1225;DHT22;602;48.000;7.840;2022-12-07T00:57:22;6.60;99.90
1225;DHT22;602;48.000;7.840;2022-12-07T00:59:49;6.60;99.90
1225;DHT22;602;48.000;7.840;2022-12-07T01:02:16;6.60;99.90
1225;DHT22;602;48.000;7.840;2022-12-07T01:04:42;6.70;99.90
1225;DHT22;602;48.000;7.840;2022-12-07T01:07:09;6.80;99.90
1225;DHT22;602;48.000;7.840;2022-12-07T01:09:37;6.90;99.90
1225;DHT22;602;48.000;7.840;2022-12-07T01:12:05;7.00;99.90
1225;DHT22;602;48.000;7.840;2022-12-07T01:14:31;6.90;99.90
1225;DHT22;602;48.000;7.840;2022-12-07T01:16:58;6.90;99.90
1225;DHT22;602;48.000;7.840;2022-12-07T01:19:25;6.90;99.90
1225;DHT22;602;48.000;7.840;2022-12-07T01:21:52;6.90;99.90
1225;DHT22;602;48.000;7.840;2022-12-07T01:24:19;6.90;99.90
1225;DHT22;602;48.000;7.840;2022-12-07T01:26:49;7.00;99.90
1225;DHT22;602;48.000;7.840;2022-12-07T01:29:16;7.00;99.90
1225;DHT22;602;48.000;7.840;2022-12-07T01:31:43;7.00;99.90
1225;DHT22;602;48.000;7.840;2022-12-07T01:34:10;7.10;99.90
1225;DHT22;602;48.000;7.840;2022-12-07T01:36:37;7.10;99.90
1225;DHT22;602;48.000;7.840;2022-12-07T01:39:05;7.10;99.90
1225;DHT22;602;48.000;7.840;2022-12-07T01:41:35;7.00;99.90
1225;DHT22;602;48.000;7.840;2022-12-07T01:44:15;7.00;99.90
1225;DHT22;602;48.000;7.840;2022-12-07T01:46:43;7.00;99.90
1225;DHT22;602;48.000;7.840;2022-12-07T01:49:14;7.00;99.90
1225;DHT22;602;48.000;7.840;2022-12-07T01:51:43;7.10;99.90
1225;DHT22;602;48.000;7.840;2022-12-07T01:54:12;7.00;99.90
1225;DHT22;602;48.000;7.840;2022-12-07T01:56:40;7.00;99.90
1225;DHT22;602;48.000;7.840;2022-12-07T01:59:10;7.00;99.90
1225;DHT22;602;48.000;7.840;2022-12-07T02:01:37;7.00;99.90
1225;DHT22;602;48.000;7.840;2022-12-07T02:04:04;6.90;99.90
1225;DHT22;602;48.000;7.840;2022-12-07T02:06:32;6.90;99.90
1225;DHT22;602;48.000;7.840;2022-12-07T02:08:59;6.90;99.90
1225;DHT22;602;48.000;7.840;2022-12-07T02:11:26;6.90;99.90
1225;DHT22;602;48.000;7.840;2022-12-07T02:13:53;6.90;99.90
1225;DHT22;602;48.000;7.840;2022-12-07T02:16:27;6.90;99.90
1225;DHT22;602;48.000;7.840;2022-12-07T02:19:09;6.90;99.90
1225;DHT22;602;48.000;7.840;2022-12-07T02:21:46;6.80;99.90
1225;DHT22;602;48.000;7.840;2022-12-07T02:24:24;6.70;99.90
1225;DHT22;602;48.000;7.840;2022-12-07T02:30:03;6.70;99.90
1225;DHT22;602;48.000;7.840;2022-12-07T02:32:40;6.50;99.90
1225;DHT22;602;48.000;7.840;2022-12-07T02:35:11;6.50;99.90
1225;DHT22;602;48.000;7.840;2022-12-07T02:37:42;6.60;99.90
1225;DHT22;602;48.000;7.840;2022-12-07T02:40:14;6.60;99.90
1225;DHT22;602;48.000;7.840;2022-12-07T02:42:46;6.50;99.90
1225;DHT22;602;48.000;7.840;2022-12-07T02:45:17;6.40;99.90
1225;DHT22;602;48.000;7.840;2022-12-07T02:47:50;6.30;99.90
1225;DHT22;602;48.000;7.840;2022-12-07T02:50:18;6.20;99.90
1225;DHT22;602;48.000;7.840;2022-12-07T02:52:46;6.20;99.90
1225;DHT22;602;48.000;7.840;2022-12-07T02:55:15;6.10;99.90
1225;DHT22;602;48.000;7.840;2022-12-07T02:57:54;6.10;99.90
1225;DHT22;602;48.000;7.840;2022-12-07T03:00:25;6.00;99.90
1225;DHT22;602;48.000;7.840;2022-12-07T03:02:55;6.10;99.90
1225;DHT22;602;48.000;7.840;2022-12-07T03:08:50;6.20;99.90
1225;DHT22;602;48.000;7.840;2022-12-07T03:11:25;6.40;99.90
1225;DHT22;602;48.000;7.840;2022-12-07T03:14:00;6.40;99.90
1225;DHT22;602;48.000;7.840;2022-12-07T03:16:33;6.40;99.90
1225;DHT22;602;48.000;7.840;2022-12-07T03:19:05;6.40;99.90
1225;DHT22;602;48.000;7.840;2022-12-07T03:21:38;6.30;99.90
1225;DHT22;602;48.000;7.840;2022-12-07T03:24:09;6.20;99.90
1225;DHT22;602;48.000;7.840;2022-12-07T03:26:39;6.20;99.90
1225;DHT22;602;48.000;7.840;2022-12-07T03:29:12;6.10;99.90
1225;DHT22;602;48.000;7.840;2022-12-07T03:31:44;6.10;99.90
1225;DHT22;602;48.000;7.840;2022-12-07T03:34:18;6.10;99.90
1225;DHT22;602;48.000;7.840;2022-12-07T03:36:52;6.20;99.90
1225;DHT22;602;48.000;7.840;2022-12-07T03:39:25;6.20;99.90
1225;DHT22;602;48.000;7.840;2022-12-07T03:41:54;6.20;99.90
1225;DHT22;602;48.000;7.840;2022-12-07T03:44:22;6.30;99.90
1225;DHT22;602;48.000;7.840;2022-12-07T03:46:57;6.30;99.90
1225;DHT22;602;48.000;7.840;2022-12-07T03:49:30;6.30;99.90
1225;DHT22;602;48.000;7.840;2022-12-07T03:52:03;6.40;99.90
1225;DHT22;602;48.000;7.840;2022-12-07T03:54:37;6.20;99.90
1225;DHT22;602;48.000;7.840;2022-12-07T03:57:06;6.30;99.90
1225;DHT22;602;48.000;7.840;2022-12-07T03:59:35;6.30;99.90
1225;DHT22;602;48.000;7.840;2022-12-07T04:02:05;6.40;99.90
1225;DHT22;602;48.000;7.840;2022-12-07T04:04:33;6.40;99.90
1225;DHT22;602;48.000;7.840;2022-12-07T04:07:00;6.40;99.90
1225;DHT22;602;48.000;7.840;2022-12-07T04:09:27;6.50;99.90
1225;DHT22;602;48.000;7.840;2022-12-07T04:11:54;6.40;99.90
1225;DHT22;602;48.000;7.840;2022-12-07T04:14:21;6.30;99.90
1225;DHT22;602;48.000;7.840;2022-12-07T04:16:49;6.30;99.90
1225;DHT22;602;48.000;7.840;2022-12-07T04:19:19;6.40;99.90
1225;DHT22;602;48.000;7.840;2022-12-07T04:21:46;6.50;99.90
1225;DHT22;602;48.000;7.840;2022-12-07T04:24:16;6.50;99.90
1225;DHT22;602;48.000;7.840;2022-12-07T04:26:46;6.40;99.90
1225;DHT22;602;48.000;7.840;2022-12-07T04:29:13;6.40;99.90
1225;DHT22;602;48.000;7.840;2022-12-07T04:31:40;6.40;99.90
1225;DHT22;602;48.000;7.840;2022-12-07T04:34:08;6.50;99.90
1225;DHT22;602;48.000;7.840;2022-12-07T04:36:36;6.60;99.90
1225;DHT22;602;48.000;7.840;2022-12-07T04:39:03;6.60;99.90
1225;DHT22;602;48.000;7.840;2022-12-07T04:41:31;6.60;99.90
1225;DHT22;602;48.000;7.840;2022-12-07T04:43:59;6.60;99.90
1225;DHT22;602;48.000;7.840;2022-12-07T04:46:27;6.60;99.90
1225;DHT22;602;48.000;7.840;2022-12-07T04:48:55;6.60;99.90
1225;DHT22;602;48.000;7.840;2022-12-07T04:51:25;6.60;99.90
1225;DHT22;602;48.000;7.840;2022-12-07T04:53:54;6.50;99.90
1225;DHT22;602;48.000;7.840;2022-12-07T04:56:22;6.60;99.90
1225;DHT22;602;48.000;7.840;2022-12-07T04:58:49;6.50;99.90
1225;DHT22;602;48.000;7.840;2022-12-07T05:01:17;6.50;99.90
1225;DHT22;602;48.000;7.840;2022-12-07T05:03:44;6.50;99.90
1225;DHT22;602;48.000;7.840;2022-12-07T05:06:11;6.50;99.90
1225;DHT22;602;48.000;7.840;2022-12-07T05:08:38;6.40;99.90
1225;DHT22;602;48.000;7.840;2022-12-07T05:11:07;6.30;99.90
1225;DHT22;602;48.000;7.840;2022-12-07T05:13:34;6.30;99.90
1225;DHT22;602;48.000;7.840;2022-12-07T05:16:02;6.40;99.90
1225;DHT22;602;48.000;7.840;2022-12-07T05:18:29;6.40;99.90
1225;DHT22;602;48.000;7.840;2022-12-07T05:20:55;6.30;99.90
1225;DHT22;602;48.000;7.840;2022-12-07T05:23:22;6.40;99.90
1225;DHT22;602;48.000;7.840;2022-12-07T05:25:49;6.40;99.90
1225;DHT22;602;48.000;7.840;2022-12-07T05:28:17;6.40;99.90
1225;DHT22;602;48.000;7.840;2022-12-07T05:30:44;6.50;99.90
1225;DHT22;602;48.000;7.840;2022-12-07T05:33:11;6.40;99.90
1225;DHT22;602;48.000;7.840;2022-12-07T05:35:38;6.40;99.90
1225;DHT22;602;48.000;7.840;2022-12-07T05:38:04;6.40;99.90
1225;DHT22;602;48.000;7.840;2022-12-07T05:40:31;6.40;99.90
1225;DHT22;602;48.000;7.840;2022-12-07T05:42:58;6.40;99.90
1225;DHT22;602;48.000;7.840;2022-12-07T05:45:26;6.40;99.90
1225;DHT22;602;48.000;7.840;2022-12-07T05:47:53;6.30;99.90
1225;DHT22;602;48.000;7.840;2022-12-07T05:50:20;6.40;99.90
1225;DHT22;602;48.000;7.840;2022-12-07T05:52:46;6.30;99.90
1225;DHT22;602;48.000;7.840;2022-12-07T05:55:13;6.20;99.90
1225;DHT22;602;48.000;7.840;2022-12-07T05:57:40;6.00;99.90
1225;DHT22;602;48.000;7.840;2022-12-07T06:00:29;6.10;99.90
1225;DHT22;602;48.000;7.840;2022-12-07T06:02:58;6.20;99.90
1225;DHT22;602;48.000;7.840;2022-12-07T06:05:26;6.10;99.90
1225;DHT22;602;48.000;7.840;2022-12-07T06:07:53;5.90;99.90
1225;DHT22;602;48.000;7.840;2022-12-07T06:10:19;5.60;99.90
1225;DHT22;602;48.000;7.840;2022-12-07T06:12:46;5.70;99.90
1225;DHT22;602;48.000;7.840;2022-12-07T06:15:12;5.80;99.90
1225;DHT22;602;48.000;7.840;2022-12-07T06:17:40;5.90;99.90
1225;DHT22;602;48.000;7.840;2022-12-07T06:20:08;6.00;99.90
1225;DHT22;602;48.000;7.840;2022-12-07T06:22:35;6.00;99.90
1225;DHT22;602;48.000;7.840;2022-12-07T06:25:02;6.00;99.90
1225;DHT22;602;48.000;7.840;2022-12-07T06:27:29;5.90;99.90
1225;DHT22;602;48.000;7.840;2022-12-07T06:29:58;5.80;99.90
1225;DHT22;602;48.000;7.840;2022-12-07T06:32:25;5.70;99.90
1225;DHT22;602;48.000;7.840;2022-12-07T06:34:53;5.80;99.90
1225;DHT22;602;48.000;7.840;2022-12-07T06:37:20;5.70;99.90
1225;DHT22;602;48.000;7.840;2022-12-07T06:39:47;5.60;99.90
1225;DHT22;602;48.000;7.840;2022-12-07T06:42:14;5.40;99.90
1225;DHT22;602;48.000;7.840;2022-12-07T06:44:40;5.40;99.90
1225;DHT22;602;48.000;7.840;2022-12-07T06:47:07;5.30;99.90
1225;DHT22;602;48.000;7.840;2022-12-07T06:49:34;5.10;99.90
1225;DHT22;602;48.000;7.840;2022-12-07T06:52:03;5.20;99.90
1225;DHT22;602;48.000;7.840;2022-12-07T06:54:31;5.20;99.90
1225;DHT22;602;48.000;7.840;2022-12-07T06:56:59;5.20;99.90
1225;DHT22;602;48.000;7.840;2022-12-07T06:59:26;5.30;99.90
1225;DHT22;602;48.000;7.840;2022-12-07T07:01:53;5.30;99.90
1225;DHT22;602;48.000;7.840;2022-12-07T07:04:19;5.40;99.90
1225;DHT22;602;48.000;7.840;2022-12-07T07:06:46;5.50;99.90
1225;DHT22;602;48.000;7.840;2022-12-07T07:09:14;5.50;99.90
1225;DHT22;602;48.000;7.840;2022-12-07T07:11:41;5.50;99.90
1225;DHT22;602;48.000;7.840;2022-12-07T07:14:08;5.50;99.90
1225;DHT22;602;48.000;7.840;2022-12-07T07:16:35;5.50;99.90
1225;DHT22;602;48.000;7.840;2022-12-07T07:19:02;5.20;99.90
1225;DHT22;602;48.000;7.840;2022-12-07T07:21:28;5.20;99.90
1225;DHT22;602;48.000;7.840;2022-12-07T07:23:55;5.30;99.90
1225;DHT22;602;48.000;7.840;2022-12-07T07:26:23;5.30;99.90
1225;DHT22;602;48.000;7.840;2022-12-07T07:28:50;5.10;99.90
1225;DHT22;602;48.000;7.840;2022-12-07T07:31:17;5.00;99.90
1225;DHT22;602;48.000;7.840;2022-12-07T07:33:45;5.10;99.90
1225;DHT22;602;48.000;7.840;2022-12-07T07:36:11;5.20;99.90
1225;DHT22;602;48.000;7.840;2022-12-07T07:38:38;5.10;99.90
1225;DHT22;602;48.000;7.840;2022-12-07T07:41:05;5.10;99.90
1225;DHT22;602;48.000;7.840;2022-12-07T07:43:33;5.10;99.90
1225;DHT22;602;48.000;7.840;2022-12-07T07:46:00;5.10;99.90
1225;DHT22;602;48.000;7.840;2022-12-07T07:48:28;5.10;99.90
1225;DHT22;602;48.000;7.840;2022-12-07T07:50:56;5.20;99.90
1225;DHT22;602;48.000;7.840;2022-12-07T07:53:30;5.10;99.90
1225;DHT22;602;48.000;7.840;2022-12-07T07:55:57;5.00;99.90
1225;DHT22;602;48.000;7.840;2022-12-07T07:58:23;5.00;99.90
1225;DHT22;602;48.000;7.840;2022-12-07T08:00:52;5.00;99.90
1225;DHT22;602;48.000;7.840;2022-12-07T08:03:19;5.00;99.90
1225;DHT22;602;48.000;7.840;2022-12-07T08:05:46;5.10;99.90
1225;DHT22;602;48.000;7.840;2022-12-07T08:08:13;4.90;99.90
1225;DHT22;602;48.000;7.840;2022-12-07T08:10:40;4.80;99.90
1225;DHT22;602;48.000;7.840;2022-12-07T08:13:07;4.90;99.90
1225;DHT22;602;48.000;7.840;2022-12-07T08:15:38;5.00;99.90
1225;DHT22;602;48.000;7.840;2022-12-07T08:18:07;5.00;99.90
1225;DHT22;602;48.000;7.840;2022-12-07T08:20:35;5.00;99.90
1225;DHT22;602;48.000;7.840;2022-12-07T08:23:02;5.00;99.90
1225;DHT22;602;48.000;7.840;2022-12-07T08:25:29;5.00;99.90
1225;DHT22;602;48.000;7.840;2022-12-07T08:27:56;5.10;99.90
1225;DHT22;602;48.000;7.840;2022-12-07T08:30:23;5.20;99.90
1225;DHT22;602;48.000;7.840;2022-12-07T08:32:50;5.20;99.90
1225;DHT22;602;48.000;7.840;2022-12-07T08:35:18;5.20;99.90
1225;DHT22;602;48.000;7.840;2022-12-07T08:37:45;5.30;99.90
1225;DHT22;602;48.000;7.840;2022-12-07T08:40:13;5.40;99.90
1225;DHT22;602;48.000;7.840;2022-12-07T08:42:41;5.50;99.90
1225;DHT22;602;48.000;7.840;2022-12-07T08:45:11;5.70;99.90
1225;DHT22;602;48.000;7.840;2022-12-07T08:47:43;5.80;99.90
1225;DHT22;602;48.000;7.840;2022-12-07T08:50:12;6.00;99.90
1225;DHT22;602;48.000;7.840;2022-12-07T08:52:42;6.10;99.90
1225;DHT22;602;48.000;7.840;2022-12-07T08:55:10;6.10;99.90
1225;DHT22;602;48.000;7.840;2022-12-07T08:57:38;6.20;99.90
1225;DHT22;602;48.000;7.840;2022-12-07T09:00:07;6.40;99.90
1225;DHT22;602;48.000;7.840;2022-12-07T09:02:34;6.60;99.90
1225;DHT22;602;48.000;7.840;2022-12-07T09:05:01;6.80;99.90
1225;DHT22;602;48.000;7.840;2022-12-07T09:07:30;7.10;99.90
1225;DHT22;602;48.000;7.840;2022-12-07T09:10:00;7.30;99.90
1225;DHT22;602;48.000;7.840;2022-12-07T09:12:26;7.40;99.90
1225;DHT22;602;48.000;7.840;2022-12-07T09:14:53;7.60;99.90
1225;DHT22;602;48.000;7.840;2022-12-07T09:17:20;7.70;99.90
1225;DHT22;602;48.000;7.840;2022-12-07T09:19:47;7.90;99.90
1225;DHT22;602;48.000;7.840;2022-12-07T09:22:14;8.10;99.90
1225;DHT22;602;48.000;7.840;2022-12-07T09:24:40;8.20;99.90
1225;DHT22;602;48.000;7.840;2022-12-07T09:27:10;8.60;99.90
1225;DHT22;602;48.000;7.840;2022-12-07T09:29:37;8.90;99.90
1225;DHT22;602;48.000;7.840;2022-12-07T09:32:04;9.30;99.90
1225;DHT22;602;48.000;7.840;2022-12-07T09:34:31;9.40;99.90
1225;DHT22;602;48.000;7.840;2022-12-07T09:36:58;9.70;99.90
1225;DHT22;602;48.000;7.840;2022-12-07T09:39:28;10.00;99.90
1225;DHT22;602;48.000;7.840;2022-12-07T09:41:57;9.80;99.90
1225;DHT22;602;48.000;7.840;2022-12-07T09:44:26;10.00;99.90
1225;DHT22;602;48.000;7.840;2022-12-07T09:46:54;10.10;99.90
1225;DHT22;602;48.000;7.840;2022-12-07T09:49:24;10.20;99.90
1225;DHT22;602;48.000;7.840;2022-12-07T09:52:01;10.10;99.90
1225;DHT22;602;48.000;7.840;2022-12-07T09:54:29;10.40;99.90
1225;DHT22;602;48.000;7.840;2022-12-07T09:56:57;10.80;99.90
1225;DHT22;602;48.000;7.840;2022-12-07T09:59:25;11.10;99.90
1225;DHT22;602;48.000;7.840;2022-12-07T10:01:52;11.40;99.90
1225;DHT22;602;48.000;7.840;2022-12-07T10:04:21;11.40;99.90
1225;DHT22;602;48.000;7.840;2022-12-07T10:06:48;11.00;99.90
1225;DHT22;602;48.000;7.840;2022-12-07T10:09:17;11.00;99.90
1225;DHT22;602;48.000;7.840;2022-12-07T10:12:03;11.20;99.90
1225;DHT22;602;48.000;7.840;2022-12-07T10:14:33;11.20;99.90
1225;DHT22;602;48.000;7.840;2022-12-07T10:17:01;11.20;99.90
1225;DHT22;602;48.000;7.840;2022-12-07T10:19:29;11.30;99.90
1225;DHT22;602;48.000;7.840;2022-12-07T10:22:04;11.40;99.90
1225;DHT22;602;48.000;7.840;2022-12-07T10:24:31;11.70;99.90
1225;DHT22;602;48.000;7.840;2022-12-07T10:26:58;11.90;99.90
1225;DHT22;602;48.000;7.840;2022-12-07T10:29:31;12.00;99.90
1225;DHT22;602;48.000;7.840;2022-12-07T10:32:00;12.10;99.90
1225;DHT22;602;48.000;7.840;2022-12-07T10:34:30;12.30;99.90
1225;DHT22;602;48.000;7.840;2022-12-07T10:37:16;12.20;99.90
1225;DHT22;602;48.000;7.840;2022-12-07T10:39:45;12.30;99.90
1225;DHT22;602;48.000;7.840;2022-12-07T10:42:18;12.60;99.90
1225;DHT22;602;48.000;7.840;2022-12-07T10:44:47;12.60;99.90
1225;DHT22;602;48.000;7.840;2022-12-07T10:47:20;12.60;99.90
1225;DHT22;602;48.000;7.840;2022-12-07T10:50:17;12.60;99.90
1225;DHT22;602;48.000;7.840;2022-12-07T10:53:09;12.60;99.90
1225;DHT22;602;48.000;7.840;2022-12-07T10:55:52;12.40;99.90
1225;DHT22;602;48.000;7.840;2022-12-07T10:58:36;12.50;99.90
1225;DHT22;602;48.000;7.840;2022-12-07T11:01:13;12.80;99.90
1225;DHT22;602;48.000;7.840;2022-12-07T11:03:50;12.80;99.90
1225;DHT22;602;48.000;7.840;2022-12-07T11:06:27;13.10;99.90
1225;DHT22;602;48.000;7.840;2022-12-07T11:09:03;13.10;99.90
1225;DHT22;602;48.000;7.840;2022-12-07T11:11:35;13.00;99.90
1225;DHT22;602;48.000;7.840;2022-12-07T11:14:11;13.20;99.90
1225;DHT22;602;48.000;7.840;2022-12-07T11:16:52;13.20;99.90
1225;DHT22;602;48.000;7.840;2022-12-07T11:19:32;13.10;99.90
1225;DHT22;602;48.000;7.840;2022-12-07T11:22:06;13.40;99.90
1225;DHT22;602;48.000;7.840;2022-12-07T11:24:43;13.40;99.90
1225;DHT22;602;48.000;7.840;2022-12-07T11:27:21;13.40;99.90
1225;DHT22;602;48.000;7.840;2022-12-07T11:30:01;13.40;99.90
1225;DHT22;602;48.000;7.840;2022-12-07T11:32:47;13.40;99.90
1225;DHT22;602;48.000;7.840;2022-12-07T11:35:24;13.40;99.90
1225;DHT22;602;48.000;7.840;2022-12-07T11:37:57;13.40;99.90
1225;DHT22;602;48.000;7.840;2022-12-07T11:40:28;13.60;99.90
1225;DHT22;602;48.000;7.840;2022-12-07T11:42:59;13.70;99.90
1225;DHT22;602;48.000;7.840;2022-12-07T11:45:31;13.70;99.90
1225;DHT22;602;48.000;7.840;2022-12-07T11:48:01;13.60;99.90
1225;DHT22;602;48.000;7.840;2022-12-07T11:50:34;13.40;99.90
1225;DHT22;602;48.000;7.840;2022-12-07T11:53:10;13.40;99.90
1225;DHT22;602;48.000;7.840;2022-12-07T11:55:45;13.40;99.90
1225;DHT22;602;48.000;7.840;2022-12-07T11:58:33;13.30;99.90
1225;DHT22;602;48.000;7.840;2022-12-07T12:01:13;13.20;99.90
1225;DHT22;602;48.000;7.840;2022-12-07T12:03:45;13.10;99.90
1225;DHT22;602;48.000;7.840;2022-12-07T12:06:13;13.00;99.90
1225;DHT22;602;48.000;7.840;2022-12-07T12:08:43;12.90;99.90
1225;DHT22;602;48.000;7.840;2022-12-07T12:11:23;13.00;99.90
1225;DHT22;602;48.000;7.840;2022-12-07T12:14:21;12.80;99.90
1225;DHT22;602;48.000;7.840;2022-12-07T12:17:19;12.90;99.90
1225;DHT22;602;48.000;7.840;2022-12-07T12:20:00;12.70;99.90
1225;DHT22;602;48.000;7.840;2022-12-07T12:22:34;12.50;99.90
1225;DHT22;602;48.000;7.840;2022-12-07T12:25:05;12.60;99.90
1225;DHT22;602;48.000;7.840;2022-12-07T12:27:34;12.60;99.90
1225;DHT22;602;48.000;7.840;2022-12-07T12:30:04;12.60;99.90
1225;DHT22;602;48.000;7.840;2022-12-07T12:32:37;12.50;99.90
1225;DHT22;602;48.000;7.840;2022-12-07T12:35:28;12.50;99.90
1225;DHT22;602;48.000;7.840;2022-12-07T12:38:28;12.20;99.90
1225;DHT22;602;48.000;7.840;2022-12-07T12:40:55;12.20;99.90
1225;DHT22;602;48.000;7.840;2022-12-07T12:43:42;12.00;99.90
1225;DHT22;602;48.000;7.840;2022-12-07T12:49:39;11.70;99.90
1225;DHT22;602;48.000;7.840;2022-12-07T12:58:34;11.60;99.90
1225;DHT22;602;48.000;7.840;2022-12-07T13:08:01;11.10;99.90
1225;DHT22;602;48.000;7.840;2022-12-07T13:10:44;11.00;99.90
1225;DHT22;602;48.000;7.840;2022-12-07T13:13:32;11.10;99.90
1225;DHT22;602;48.000;7.840;2022-12-07T13:22:50;11.20;99.90
1225;DHT22;602;48.000;7.840;2022-12-07T13:25:21;11.40;99.90
1225;DHT22;602;48.000;7.840;2022-12-07T13:27:57;11.00;99.90
1225;DHT22;602;48.000;7.840;2022-12-07T13:30:24;11.00;99.90
1225;DHT22;602;48.000;7.840;2022-12-07T13:32:53;11.10;99.90
1225;DHT22;602;48.000;7.840;2022-12-07T13:35:34;11.20;99.90
1225;DHT22;602;48.000;7.840;2022-12-07T13:38:05;11.10;99.90
1225;DHT22;602;48.000;7.840;2022-12-07T13:40:32;11.00;99.90
1225;DHT22;602;48.000;7.840;2022-12-07T13:43:02;10.90;99.90
1225;DHT22;602;48.000;7.840;2022-12-07T13:45:30;11.00;99.90
1225;DHT22;602;48.000;7.840;2022-12-07T13:48:21;10.80;99.90
1225;DHT22;602;48.000;7.840;2022-12-07T13:50:53;11.00;99.90
1225;DHT22;602;48.000;7.840;2022-12-07T13:53:21;11.00;99.90
1225;DHT22;602;48.000;7.840;2022-12-07T13:55:48;10.90;99.90
1225;DHT22;602;48.000;7.840;2022-12-07T13:58:17;11.00;99.90
1225;DHT22;602;48.000;7.840;2022-12-07T14:00:45;11.10;99.90
1225;DHT22;602;48.000;7.840;2022-12-07T14:03:29;11.10;99.90
1225;DHT22;602;48.000;7.840;2022-12-07T14:06:05;10.90;99.90
1225;DHT22;602;48.000;7.840;2022-12-07T14:08:32;10.70;99.90
1225;DHT22;602;48.000;7.840;2022-12-07T14:11:00;10.60;99.90
1225;DHT22;602;48.000;7.840;2022-12-07T14:13:32;10.40;99.90
1225;DHT22;602;48.000;7.840;2022-12-07T14:16:00;10.40;99.90
1225;DHT22;602;48.000;7.840;2022-12-07T14:18:29;10.50;99.90
1225;DHT22;602;48.000;7.840;2022-12-07T14:21:04;10.30;99.90
1225;DHT22;602;48.000;7.840;2022-12-07T14:23:32;10.10;99.90
1225;DHT22;602;48.000;7.840;2022-12-07T14:26:07;10.00;99.90
1225;DHT22;602;48.000;7.840;2022-12-07T14:28:37;10.00;99.90
1225;DHT22;602;48.000;7.840;2022-12-07T14:31:11;10.00;99.90
1225;DHT22;602;48.000;7.840;2022-12-07T14:33:39;9.90;99.90
1225;DHT22;602;48.000;7.840;2022-12-07T14:36:09;10.00;99.90
1225;DHT22;602;48.000;7.840;2022-12-07T14:38:36;9.70;99.90
1225;DHT22;602;48.000;7.840;2022-12-07T14:41:03;9.60;99.90
1225;DHT22;602;48.000;7.840;2022-12-07T14:43:50;9.50;99.90
1225;DHT22;602;48.000;7.840;2022-12-07T14:46:17;9.50;99.90
1225;DHT22;602;48.000;7.840;2022-12-07T14:48:46;9.60;99.90
1225;DHT22;602;48.000;7.840;2022-12-07T14:51:19;9.50;99.90
1225;DHT22;602;48.000;7.840;2022-12-07T14:53:50;9.50;99.90
1225;DHT22;602;48.000;7.840;2022-12-07T14:56:17;9.60;99.90
1225;DHT22;602;48.000;7.840;2022-12-07T14:58:44;9.60;99.90
1225;DHT22;602;48.000;7.840;2022-12-07T15:01:15;9.60;99.90
1225;DHT22;602;48.000;7.840;2022-12-07T15:03:41;9.50;99.90
1225;DHT22;602;48.000;7.840;2022-12-07T15:06:13;9.30;99.90
1225;DHT22;602;48.000;7.840;2022-12-07T15:08:41;9.40;99.90
1225;DHT22;602;48.000;7.840;2022-12-07T15:11:11;9.20;99.90
1225;DHT22;602;48.000;7.840;2022-12-07T15:13:38;9.10;99.90
1225;DHT22;602;48.000;7.840;2022-12-07T15:16:24;9.20;99.90
1225;DHT22;602;48.000;7.840;2022-12-07T15:18:51;9.20;99.90
1225;DHT22;602;48.000;7.840;2022-12-07T15:21:18;9.20;99.90
1225;DHT22;602;48.000;7.840;2022-12-07T15:23:46;9.30;99.90
1225;DHT22;602;48.000;7.840;2022-12-07T15:26:13;9.40;99.90
1225;DHT22;602;48.000;7.840;2022-12-07T15:28:40;9.30;99.90
1225;DHT22;602;48.000;7.840;2022-12-07T15:31:11;9.20;99.90
1225;DHT22;602;48.000;7.840;2022-12-07T15:33:39;9.20;99.90
1225;DHT22;602;48.000;7.840;2022-12-07T15:36:06;9.20;99.90
1225;DHT22;602;48.000;7.840;2022-12-07T15:38:35;9.20;99.90
1225;DHT22;602;48.000;7.840;2022-12-07T15:41:02;9.20;99.90
1225;DHT22;602;48.000;7.840;2022-12-07T15:43:29;9.20;99.90
1225;DHT22;602;48.000;7.840;2022-12-07T15:46:13;9.10;99.90
1225;DHT22;602;48.000;7.840;2022-12-07T15:48:41;9.10;99.90
1225;DHT22;602;48.000;7.840;2022-12-07T15:51:09;9.20;99.90
1225;DHT22;602;48.000;7.840;2022-12-07T15:53:36;9.20;99.90
1225;DHT22;602;48.000;7.840;2022-12-07T15:56:06;9.10;99.90
1225;DHT22;602;48.000;7.840;2022-12-07T15:58:33;9.10;99.90
1225;DHT22;602;48.000;7.840;2022-12-07T16:01:00;9.10;99.90
1225;DHT22;602;48.000;7.840;2022-12-07T16:03:35;9.10;99.90
1225;DHT22;602;48.000;7.840;2022-12-07T16:06:04;9.00;99.90
1225;DHT22;602;48.000;7.840;2022-12-07T16:08:31;9.00;99.90
1225;DHT22;602;48.000;7.840;2022-12-07T16:10:58;9.00;99.90
1225;DHT22;602;48.000;7.840;2022-12-07T16:13:25;9.00;99.90
1225;DHT22;602;48.000;7.840;2022-12-07T16:15:52;8.70;99.90
1225;DHT22;602;48.000;7.840;2022-12-07T16:18:19;8.70;99.90
1225;DHT22;602;48.000;7.840;2022-12-07T16:20:47;8.70;99.90
1225;DHT22;602;48.000;7.840;2022-12-07T16:23:16;8.70;99.90
1225;DHT22;602;48.000;7.840;2022-12-07T16:25:43;8.70;99.90
1225;DHT22;602;48.000;7.840;2022-12-07T16:28:10;8.70;99.90
1225;DHT22;602;48.000;7.840;2022-12-07T16:30:37;8.70;99.90
1225;DHT22;602;48.000;7.840;2022-12-07T16:33:03;8.60;99.90
1225;DHT22;602;48.000;7.840;2022-12-07T16:35:30;8.60;99.90
1225;DHT22;602;48.000;7.840;2022-12-07T16:37:57;8.50;99.90
1225;DHT22;602;48.000;7.840;2022-12-07T16:40:25;8.50;99.90
1225;DHT22;602;48.000;7.840;2022-12-07T16:42:52;8.20;99.90
1225;DHT22;602;48.000;7.840;2022-12-07T16:45:19;8.20;99.90
1225;DHT22;602;48.000;7.840;2022-12-07T16:47:46;8.20;99.90
1225;DHT22;602;48.000;7.840;2022-12-07T16:50:13;8.20;99.90
1225;DHT22;602;48.000;7.840;2022-12-07T16:52:40;8.20;99.90
1225;DHT22;602;48.000;7.840;2022-12-07T16:55:07;8.00;99.90
1225;DHT22;602;48.000;7.840;2022-12-07T16:57:35;8.00;99.90
1225;DHT22;602;48.000;7.840;2022-12-07T17:00:04;8.10;99.90
1225;DHT22;602;48.000;7.840;2022-12-07T17:02:31;8.10;99.90
1225;DHT22;602;48.000;7.840;2022-12-07T17:04:58;8.10;99.90
1225;DHT22;602;48.000;7.840;2022-12-07T17:07:26;8.00;99.90
1225;DHT22;602;48.000;7.840;2022-12-07T17:09:53;7.90;99.90
1225;DHT22;602;48.000;7.840;2022-12-07T17:12:20;7.80;99.90
1225;DHT22;602;48.000;7.840;2022-12-07T17:14:48;7.80;99.90
1225;DHT22;602;48.000;7.840;2022-12-07T17:17:32;7.70;99.90